sensor_id;sensor_type;location;lat;lon;timestamp;P1;durP1;ratioP1;P2;durP2;ratioP2
2548;SDS011;1284;53.520;10.248;2023-08-12T00:02:32;1.05;;;0.95;;
2548;SDS011;1284;53.520;10.248;2023-08-12T00:04:57;0.85;;;0.80;;
2548;SDS011;1284;53.520;10.248;2023-08-12T00:07:23;0.95;;;0.70;;
2548;SDS011;1284;53.520;10.248;2023-08-12T00:09:49;1.05;;;0.90;;
2548;SDS011;1284;53.520;10.248;2023-08-12T00:12:14;1.17;;;0.75;;
2548;SDS011;1284;53.520;10.248;2023-08-12T00:14:40;2.20;;;1.00;;
2548;SDS011;1284;53.520;10.248;2023-08-12T00:17:08;3.10;;;1.20;;
2548;SDS011;1284;53.520;10.248;2023-08-12T00:19:33;1.85;;;1.08;;
2548;SDS011;1284;53.520;10.248;2023-08-12T00:21:59;2.10;;;1.48;;
2548;SDS011;1284;53.520;10.248;2023-08-12T00:24:24;3.38;;;1.00;;
2548;SDS011;1284;53.520;10.248;2023-08-12T00:26:50;2.10;;;1.23;;
2548;SDS011;1284;53.520;10.248;2023-08-12T00:29:15;2.20;;;1.20;;
2548;SDS011;1284;53.520;10.248;2023-08-12T00:31:40;1.73;;;1.00;;
2548;SDS011;1284;53.520;10.248;2023-08-12T00:34:06;1.52;;;0.70;;
2548;SDS011;1284;53.520;10.248;2023-08-12T00:36:31;1.17;;;1.08;;
2548;SDS011;1284;53.520;10.248;2023-08-12T00:38:57;1.73;;;1.08;;
2548;SDS011;1284;53.520;10.248;2023-08-12T00:41:22;1.65;;;0.93;;
2548;SDS011;1284;53.520;10.248;2023-08-12T00:43:48;1.88;;;1.00;;
2548;SDS011;1284;53.520;10.248;2023-08-12T00:46:13;3.40;;;1.55;;
2548;SDS011;1284;53.520;10.248;2023-08-12T00:48:38;1.92;;;1.05;;
2548;SDS011;1284;53.520;10.248;2023-08-12T00:51:05;1.10;;;0.98;;
2548;SDS011;1284;53.520;10.248;2023-08-12T00:53:30;1.63;;;0.95;;
2548;SDS011;1284;53.520;10.248;2023-08-12T00:55:57;0.80;;;0.77;;
2548;SDS011;1284;53.520;10.248;2023-08-12T00:58:23;0.98;;;0.85;;
2548;SDS011;1284;53.520;10.248;2023-08-12T01:00:49;1.55;;;1.00;;
2548;SDS011;1284;53.520;10.248;2023-08-12T01:03:17;1.08;;;0.70;;
2548;SDS011;1284;53.520;10.248;2023-08-12T01:05:42;2.10;;;0.77;;
2548;SDS011;1284;53.520;10.248;2023-08-12T01:08:09;1.83;;;0.70;;
2548;SDS011;1284;53.520;10.248;2023-08-12T01:10:35;1.40;;;1.05;;
2548;SDS011;1284;53.520;10.248;2023-08-12T01:15:49;0.45;;;0.45;;
2548;SDS011;1284;53.520;10.248;2023-08-12T01:18:19;1.20;;;0.88;;
2548;SDS011;1284;53.520;10.248;2023-08-12T01:20:45;1.02;;;0.93;;
2548;SDS011;1284;53.520;10.248;2023-08-12T01:23:15;1.00;;;0.73;;
2548;SDS011;1284;53.520;10.248;2023-08-12T01:25:41;3.15;;;1.00;;
2548;SDS011;1284;53.520;10.248;2023-08-12T01:28:07;1.50;;;1.00;;
2548;SDS011;1284;53.520;10.248;2023-08-12T01:30:34;0.70;;;0.70;;
2548;SDS011;1284;53.520;10.248;2023-08-12T01:33:09;1.00;;;0.93;;
2548;SDS011;1284;53.520;10.248;2023-08-12T01:35:47;0.80;;;0.65;;
2548;SDS011;1284;53.520;10.248;2023-08-12T01:38:18;4.95;;;0.98;;
2548;SDS011;1284;53.520;10.248;2023-08-12T01:40:44;5.32;;;1.10;;
2548;SDS011;1284;53.520;10.248;2023-08-12T01:43:11;1.30;;;0.90;;
2548;SDS011;1284;53.520;10.248;2023-08-12T01:45:37;1.23;;;1.00;;
2548;SDS011;1284;53.520;10.248;2023-08-12T01:48:03;1.55;;;1.05;;
2548;SDS011;1284;53.520;10.248;2023-08-12T01:50:29;1.00;;;0.90;;
2548;SDS011;1284;53.520;10.248;2023-08-12T01:52:54;1.48;;;1.00;;
2548;SDS011;1284;53.520;10.248;2023-08-12T01:55:19;0.73;;;0.70;;
2548;SDS011;1284;53.520;10.248;2023-08-12T01:57:45;1.35;;;1.00;;
2548;SDS011;1284;53.520;10.248;2023-08-12T02:00:10;2.13;;;1.00;;
2548;SDS011;1284;53.520;10.248;2023-08-12T02:02:42;1.35;;;0.88;;
2548;SDS011;1284;53.520;10.248;2023-08-12T02:05:11;2.75;;;0.80;;
2548;SDS011;1284;53.520;10.248;2023-08-12T02:07:36;1.10;;;0.90;;
2548;SDS011;1284;53.520;10.248;2023-08-12T02:10:02;2.13;;;1.20;;
2548;SDS011;1284;53.520;10.248;2023-08-12T02:12:27;1.08;;;0.98;;
2548;SDS011;1284;53.520;10.248;2023-08-12T02:14:53;1.83;;;1.27;;
2548;SDS011;1284;53.520;10.248;2023-08-12T02:17:18;4.18;;;0.98;;
2548;SDS011;1284;53.520;10.248;2023-08-12T02:19:44;1.17;;;0.90;;
2548;SDS011;1284;53.520;10.248;2023-08-12T02:22:09;1.65;;;0.90;;
2548;SDS011;1284;53.520;10.248;2023-08-12T02:24:35;1.30;;;0.70;;
2548;SDS011;1284;53.520;10.248;2023-08-12T02:27:01;1.38;;;0.95;;
2548;SDS011;1284;53.520;10.248;2023-08-12T02:29:26;1.17;;;0.70;;
2548;SDS011;1284;53.520;10.248;2023-08-12T02:31:52;1.60;;;0.98;;
2548;SDS011;1284;53.520;10.248;2023-08-12T02:34:19;1.40;;;0.95;;
2548;SDS011;1284;53.520;10.248;2023-08-12T02:36:44;3.33;;;1.00;;
2548;SDS011;1284;53.520;10.248;2023-08-12T02:39:10;1.13;;;1.00;;
2548;SDS011;1284;53.520;10.248;2023-08-12T02:41:55;1.38;;;1.00;;
2548;SDS011;1284;53.520;10.248;2023-08-12T02:44:21;1.75;;;1.02;;
2548;SDS011;1284;53.520;10.248;2023-08-12T02:46:46;1.15;;;0.77;;
2548;SDS011;1284;53.520;10.248;2023-08-12T02:49:12;8.38;;;1.10;;
2548;SDS011;1284;53.520;10.248;2023-08-12T02:51:37;0.98;;;0.82;;
2548;SDS011;1284;53.520;10.248;2023-08-12T02:54:03;0.88;;;0.73;;
2548;SDS011;1284;53.520;10.248;2023-08-12T02:56:28;1.00;;;0.90;;
2548;SDS011;1284;53.520;10.248;2023-08-12T02:58:54;1.33;;;0.90;;
2548;SDS011;1284;53.520;10.248;2023-08-12T03:01:20;1.40;;;0.98;;
2548;SDS011;1284;53.520;10.248;2023-08-12T03:03:46;1.40;;;0.90;;
2548;SDS011;1284;53.520;10.248;2023-08-12T03:06:11;1.23;;;0.77;;
2548;SDS011;1284;53.520;10.248;2023-08-12T03:08:37;1.92;;;0.90;;
2548;SDS011;1284;53.520;10.248;2023-08-12T03:11:03;1.10;;;1.00;;
2548;SDS011;1284;53.520;10.248;2023-08-12T03:13:29;1.67;;;0.88;;
2548;SDS011;1284;53.520;10.248;2023-08-12T03:15:56;1.30;;;0.90;;
2548;SDS011;1284;53.520;10.248;2023-08-12T03:18:21;1.95;;;1.00;;
2548;SDS011;1284;53.520;10.248;2023-08-12T03:20:47;3.67;;;1.17;;
2548;SDS011;1284;53.520;10.248;2023-08-12T03:23:14;0.80;;;0.80;;
2548;SDS011;1284;53.520;10.248;2023-08-12T03:25:41;1.55;;;0.95;;
2548;SDS011;1284;53.520;10.248;2023-08-12T03:28:12;1.63;;;0.90;;
2548;SDS011;1284;53.520;10.248;2023-08-12T03:30:38;1.30;;;1.20;;
2548;SDS011;1284;53.520;10.248;2023-08-12T03:33:03;1.13;;;1.02;;
2548;SDS011;1284;53.520;10.248;2023-08-12T03:35:32;1.55;;;1.15;;
2548;SDS011;1284;53.520;10.248;2023-08-12T03:37:58;1.60;;;1.00;;
2548;SDS011;1284;53.520;10.248;2023-08-12T03:40:24;2.50;;;0.95;;
2548;SDS011;1284;53.520;10.248;2023-08-12T03:42:49;1.63;;;1.05;;
2548;SDS011;1284;53.520;10.248;2023-08-12T03:45:16;1.10;;;1.00;;
2548;SDS011;1284;53.520;10.248;2023-08-12T03:47:42;4.18;;;1.05;;
2548;SDS011;1284;53.520;10.248;2023-08-12T03:50:08;0.68;;;0.65;;
2548;SDS011;1284;53.520;10.248;2023-08-12T03:52:34;0.60;;;0.60;;
2548;SDS011;1284;53.520;10.248;2023-08-12T03:55:00;1.38;;;0.90;;
2548;SDS011;1284;53.520;10.248;2023-08-12T03:57:25;1.30;;;0.82;;
2548;SDS011;1284;53.520;10.248;2023-08-12T03:59:51;0.90;;;0.70;;
2548;SDS011;1284;53.520;10.248;2023-08-12T04:02:16;1.75;;;1.20;;
2548;SDS011;1284;53.520;10.248;2023-08-12T04:04:43;2.00;;;1.20;;
2548;SDS011;1284;53.520;10.248;2023-08-12T04:07:09;1.40;;;1.13;;
2548;SDS011;1284;53.520;10.248;2023-08-12T04:09:35;2.40;;;1.05;;
2548;SDS011;1284;53.520;10.248;2023-08-12T04:12:00;1.40;;;1.10;;
2548;SDS011;1284;53.520;10.248;2023-08-12T04:14:26;2.47;;;0.85;;
2548;SDS011;1284;53.520;10.248;2023-08-12T04:16:51;1.58;;;1.10;;
2548;SDS011;1284;53.520;10.248;2023-08-12T04:19:16;0.95;;;0.85;;
2548;SDS011;1284;53.520;10.248;2023-08-12T04:21:42;1.70;;;1.20;;
2548;SDS011;1284;53.520;10.248;2023-08-12T04:24:11;1.60;;;1.40;;
2548;SDS011;1284;53.520;10.248;2023-08-12T04:26:37;1.52;;;1.05;;
2548;SDS011;1284;53.520;10.248;2023-08-12T04:29:03;1.50;;;1.00;;
2548;SDS011;1284;53.520;10.248;2023-08-12T04:31:29;1.05;;;0.95;;
2548;SDS011;1284;53.520;10.248;2023-08-12T04:33:55;0.98;;;0.90;;
2548;SDS011;1284;53.520;10.248;2023-08-12T04:36:22;1.27;;;1.10;;
2548;SDS011;1284;53.520;10.248;2023-08-12T04:38:48;0.77;;;0.77;;
2548;SDS011;1284;53.520;10.248;2023-08-12T04:41:15;1.63;;;0.82;;
2548;SDS011;1284;53.520;10.248;2023-08-12T04:43:40;1.70;;;1.00;;
2548;SDS011;1284;53.520;10.248;2023-08-12T04:46:06;0.90;;;0.90;;
2548;SDS011;1284;53.520;10.248;2023-08-12T04:48:33;3.55;;;1.08;;
2548;SDS011;1284;53.520;10.248;2023-08-12T04:51:00;1.08;;;0.90;;
2548;SDS011;1284;53.520;10.248;2023-08-12T04:53:27;1.35;;;0.85;;
2548;SDS011;1284;53.520;10.248;2023-08-12T04:55:54;3.45;;;1.08;;
2548;SDS011;1284;53.520;10.248;2023-08-12T04:58:20;1.48;;;0.95;;
2548;SDS011;1284;53.520;10.248;2023-08-12T05:00:47;1.55;;;1.00;;
2548;SDS011;1284;53.520;10.248;2023-08-12T05:03:12;1.70;;;0.95;;
2548;SDS011;1284;53.520;10.248;2023-08-12T05:05:38;5.50;;;1.27;;
2548;SDS011;1284;53.520;10.248;2023-08-12T05:08:03;1.80;;;1.02;;
2548;SDS011;1284;53.520;10.248;2023-08-12T05:10:29;2.63;;;1.20;;
2548;SDS011;1284;53.520;10.248;2023-08-12T05:12:57;1.98;;;1.10;;
2548;SDS011;1284;53.520;10.248;2023-08-12T05:15:24;1.70;;;1.00;;
2548;SDS011;1284;53.520;10.248;2023-08-12T05:17:49;1.17;;;1.08;;
2548;SDS011;1284;53.520;10.248;2023-08-12T05:20:19;2.33;;;0.98;;
2548;SDS011;1284;53.520;10.248;2023-08-12T05:23:04;1.35;;;1.00;;
2548;SDS011;1284;53.520;10.248;2023-08-12T05:25:30;1.58;;;1.10;;
2548;SDS011;1284;53.520;10.248;2023-08-12T05:27:55;1.23;;;1.02;;
2548;SDS011;1284;53.520;10.248;2023-08-12T05:30:21;1.10;;;1.00;;
2548;SDS011;1284;53.520;10.248;2023-08-12T05:32:46;1.50;;;0.88;;
2548;SDS011;1284;53.520;10.248;2023-08-12T05:35:11;1.23;;;0.90;;
2548;SDS011;1284;53.520;10.248;2023-08-12T05:37:37;1.38;;;1.00;;
2548;SDS011;1284;53.520;10.248;2023-08-12T05:40:02;1.15;;;0.98;;
2548;SDS011;1284;53.520;10.248;2023-08-12T05:42:33;1.67;;;0.90;;
2548;SDS011;1284;53.520;10.248;2023-08-12T05:45:18;1.90;;;1.08;;
2548;SDS011;1284;53.520;10.248;2023-08-12T05:47:44;1.55;;;1.15;;
2548;SDS011;1284;53.520;10.248;2023-08-12T05:50:09;1.42;;;1.05;;
2548;SDS011;1284;53.520;10.248;2023-08-12T05:52:35;2.08;;;1.42;;
2548;SDS011;1284;53.520;10.248;2023-08-12T05:55:00;1.88;;;1.13;;
2548;SDS011;1284;53.520;10.248;2023-08-12T05:57:26;1.52;;;1.15;;
2548;SDS011;1284;53.520;10.248;2023-08-12T05:59:51;2.83;;;1.02;;
2548;SDS011;1284;53.520;10.248;2023-08-12T06:02:17;0.90;;;0.70;;
2548;SDS011;1284;53.520;10.248;2023-08-12T06:04:43;1.42;;;1.20;;
2548;SDS011;1284;53.520;10.248;2023-08-12T06:07:09;1.30;;;1.00;;
2548;SDS011;1284;53.520;10.248;2023-08-12T06:09:34;2.00;;;1.00;;
2548;SDS011;1284;53.520;10.248;2023-08-12T06:12:00;2.05;;;1.27;;
2548;SDS011;1284;53.520;10.248;2023-08-12T06:14:25;3.13;;;1.05;;
2548;SDS011;1284;53.520;10.248;2023-08-12T06:16:50;1.88;;;1.30;;
2548;SDS011;1284;53.520;10.248;2023-08-12T06:19:16;1.15;;;1.00;;
2548;SDS011;1284;53.520;10.248;2023-08-12T06:21:41;1.13;;;1.02;;
2548;SDS011;1284;53.520;10.248;2023-08-12T06:24:07;2.00;;;1.70;;
2548;SDS011;1284;53.520;10.248;2023-08-12T06:26:32;1.48;;;1.10;;
2548;SDS011;1284;53.520;10.248;2023-08-12T06:29:18;1.80;;;0.98;;
2548;SDS011;1284;53.520;10.248;2023-08-12T06:31:43;3.88;;;1.20;;
2548;SDS011;1284;53.520;10.248;2023-08-12T06:34:09;1.80;;;1.50;;
2548;SDS011;1284;53.520;10.248;2023-08-12T06:36:34;1.50;;;1.08;;
2548;SDS011;1284;53.520;10.248;2023-08-12T06:39:00;0.93;;;0.88;;
2548;SDS011;1284;53.520;10.248;2023-08-12T06:41:25;1.20;;;1.08;;
2548;SDS011;1284;53.520;10.248;2023-08-12T06:43:51;1.38;;;1.08;;
2548;SDS011;1284;53.520;10.248;2023-08-12T06:46:16;2.30;;;1.40;;
2548;SDS011;1284;53.520;10.248;2023-08-12T06:48:41;4.68;;;1.10;;
2548;SDS011;1284;53.520;10.248;2023-08-12T06:51:07;2.22;;;1.33;;
2548;SDS011;1284;53.520;10.248;2023-08-12T06:53:35;1.65;;;1.20;;
2548;SDS011;1284;53.520;10.248;2023-08-12T06:56:01;3.38;;;1.85;;
2548;SDS011;1284;53.520;10.248;2023-08-12T06:58:27;2.60;;;1.70;;
2548;SDS011;1284;53.520;10.248;2023-08-12T07:00:52;1.42;;;1.00;;
2548;SDS011;1284;53.520;10.248;2023-08-12T07:03:18;2.58;;;1.45;;
2548;SDS011;1284;53.520;10.248;2023-08-12T07:05:44;2.55;;;1.60;;
2548;SDS011;1284;53.520;10.248;2023-08-12T07:08:09;2.08;;;1.60;;
2548;SDS011;1284;53.520;10.248;2023-08-12T07:10:38;2.35;;;1.55;;
2548;SDS011;1284;53.520;10.248;2023-08-12T07:13:05;2.53;;;1.83;;
2548;SDS011;1284;53.520;10.248;2023-08-12T07:15:30;4.15;;;1.77;;
2548;SDS011;1284;53.520;10.248;2023-08-12T07:17:56;1.83;;;1.35;;
2548;SDS011;1284;53.520;10.248;2023-08-12T07:20:23;3.38;;;1.45;;
2548;SDS011;1284;53.520;10.248;2023-08-12T07:22:49;2.42;;;1.73;;
2548;SDS011;1284;53.520;10.248;2023-08-12T07:25:15;4.22;;;2.40;;
2548;SDS011;1284;53.520;10.248;2023-08-12T07:27:41;2.20;;;1.58;;
2548;SDS011;1284;53.520;10.248;2023-08-12T07:30:06;4.93;;;2.30;;
2548;SDS011;1284;53.520;10.248;2023-08-12T07:32:33;4.35;;;2.17;;
2548;SDS011;1284;53.520;10.248;2023-08-12T07:34:58;2.92;;;2.28;;
2548;SDS011;1284;53.520;10.248;2023-08-12T07:37:25;7.18;;;2.20;;
2548;SDS011;1284;53.520;10.248;2023-08-12T07:39:51;2.97;;;2.17;;
2548;SDS011;1284;53.520;10.248;2023-08-12T07:42:16;6.35;;;1.65;;
2548;SDS011;1284;53.520;10.248;2023-08-12T07:44:42;3.92;;;2.33;;
2548;SDS011;1284;53.520;10.248;2023-08-12T07:47:08;4.93;;;2.22;;
2548;SDS011;1284;53.520;10.248;2023-08-12T07:49:34;2.40;;;1.88;;
2548;SDS011;1284;53.520;10.248;2023-08-12T07:52:00;4.85;;;2.05;;
2548;SDS011;1284;53.520;10.248;2023-08-12T07:54:25;5.13;;;2.55;;
2548;SDS011;1284;53.520;10.248;2023-08-12T07:56:51;2.78;;;1.92;;
2548;SDS011;1284;53.520;10.248;2023-08-12T07:59:18;2.63;;;2.05;;
2548;SDS011;1284;53.520;10.248;2023-08-12T08:01:44;3.70;;;2.45;;
2548;SDS011;1284;53.520;10.248;2023-08-12T08:04:10;3.92;;;2.20;;
2548;SDS011;1284;53.520;10.248;2023-08-12T08:06:35;3.75;;;2.47;;
2548;SDS011;1284;53.520;10.248;2023-08-12T08:09:00;4.55;;;2.13;;
2548;SDS011;1284;53.520;10.248;2023-08-12T08:11:28;3.47;;;2.08;;
2548;SDS011;1284;53.520;10.248;2023-08-12T08:13:54;3.58;;;2.10;;
2548;SDS011;1284;53.520;10.248;2023-08-12T08:16:19;4.30;;;2.22;;
2548;SDS011;1284;53.520;10.248;2023-08-12T08:18:45;3.30;;;2.22;;
2548;SDS011;1284;53.520;10.248;2023-08-12T08:21:10;4.57;;;2.85;;
2548;SDS011;1284;53.520;10.248;2023-08-12T08:23:35;8.15;;;2.33;;
2548;SDS011;1284;53.520;10.248;2023-08-12T08:26:01;3.50;;;2.28;;
2548;SDS011;1284;53.520;10.248;2023-08-12T08:28:26;2.60;;;2.08;;
2548;SDS011;1284;53.520;10.248;2023-08-12T08:30:52;2.67;;;2.00;;
2548;SDS011;1284;53.520;10.248;2023-08-12T08:33:18;4.13;;;2.38;;
2548;SDS011;1284;53.520;10.248;2023-08-12T08:35:44;3.55;;;1.95;;
2548;SDS011;1284;53.520;10.248;2023-08-12T08:38:09;4.35;;;2.13;;
2548;SDS011;1284;53.520;10.248;2023-08-12T08:40:35;4.50;;;2.65;;
2548;SDS011;1284;53.520;10.248;2023-08-12T08:43:02;5.93;;;2.30;;
2548;SDS011;1284;53.520;10.248;2023-08-12T08:45:31;3.42;;;2.13;;
2548;SDS011;1284;53.520;10.248;2023-08-12T08:47:57;4.35;;;2.53;;
2548;SDS011;1284;53.520;10.248;2023-08-12T08:50:26;3.45;;;1.98;;
2548;SDS011;1284;53.520;10.248;2023-08-12T08:52:55;3.10;;;2.30;;
2548;SDS011;1284;53.520;10.248;2023-08-12T08:55:22;3.80;;;2.15;;
2548;SDS011;1284;53.520;10.248;2023-08-12T08:57:47;3.85;;;2.22;;
2548;SDS011;1284;53.520;10.248;2023-08-12T09:00:17;3.50;;;2.13;;
2548;SDS011;1284;53.520;10.248;2023-08-12T09:02:44;3.15;;;2.13;;
2548;SDS011;1284;53.520;10.248;2023-08-12T09:05:12;3.38;;;2.17;;
2548;SDS011;1284;53.520;10.248;2023-08-12T09:07:40;3.38;;;1.98;;
2548;SDS011;1284;53.520;10.248;2023-08-12T09:10:07;4.18;;;2.20;;
2548;SDS011;1284;53.520;10.248;2023-08-12T09:12:33;3.58;;;1.85;;
2548;SDS011;1284;53.520;10.248;2023-08-12T09:14:59;2.65;;;1.73;;
2548;SDS011;1284;53.520;10.248;2023-08-12T09:17:25;6.20;;;2.30;;
2548;SDS011;1284;53.520;10.248;2023-08-12T09:19:50;4.15;;;2.00;;
2548;SDS011;1284;53.520;10.248;2023-08-12T09:22:16;3.22;;;2.00;;
2548;SDS011;1284;53.520;10.248;2023-08-12T09:24:43;4.13;;;2.22;;
2548;SDS011;1284;53.520;10.248;2023-08-12T09:27:08;3.58;;;2.08;;
2548;SDS011;1284;53.520;10.248;2023-08-12T09:29:35;4.30;;;2.08;;
2548;SDS011;1284;53.520;10.248;2023-08-12T09:35:00;3.08;;;1.95;;
2548;SDS011;1284;53.520;10.248;2023-08-12T09:37:28;2.90;;;1.63;;
2548;SDS011;1284;53.520;10.248;2023-08-12T09:39:54;3.35;;;2.28;;
2548;SDS011;1284;53.520;10.248;2023-08-12T09:42:19;3.35;;;2.03;;
2548;SDS011;1284;53.520;10.248;2023-08-12T09:44:45;3.33;;;1.75;;
2548;SDS011;1284;53.520;10.248;2023-08-12T09:47:11;4.55;;;2.70;;
2548;SDS011;1284;53.520;10.248;2023-08-12T09:49:37;4.32;;;2.50;;
2548;SDS011;1284;53.520;10.248;2023-08-12T09:52:04;3.08;;;2.00;;
2548;SDS011;1284;53.520;10.248;2023-08-12T09:54:36;3.35;;;1.98;;
2548;SDS011;1284;53.520;10.248;2023-08-12T09:57:02;4.03;;;2.22;;
2548;SDS011;1284;53.520;10.248;2023-08-12T09:59:31;2.70;;;2.20;;
2548;SDS011;1284;53.520;10.248;2023-08-12T10:01:59;3.33;;;2.28;;
2548;SDS011;1284;53.520;10.248;2023-08-12T10:04:29;3.28;;;2.03;;
2548;SDS011;1284;53.520;10.248;2023-08-12T10:07:06;4.47;;;2.42;;
2548;SDS011;1284;53.520;10.248;2023-08-12T10:09:32;4.45;;;2.47;;
2548;SDS011;1284;53.520;10.248;2023-08-12T10:11:58;2.85;;;2.03;;
2548;SDS011;1284;53.520;10.248;2023-08-12T10:14:25;3.47;;;2.17;;
2548;SDS011;1284;53.520;10.248;2023-08-12T10:16:51;2.80;;;2.17;;
2548;SDS011;1284;53.520;10.248;2023-08-12T10:19:18;3.20;;;2.25;;
2548;SDS011;1284;53.520;10.248;2023-08-12T10:21:47;3.83;;;2.42;;
2548;SDS011;1284;53.520;10.248;2023-08-12T10:24:13;3.95;;;2.05;;
2548;SDS011;1284;53.520;10.248;2023-08-12T10:26:41;3.60;;;2.50;;
2548;SDS011;1284;53.520;10.248;2023-08-12T10:29:07;2.95;;;1.95;;
2548;SDS011;1284;53.520;10.248;2023-08-12T10:31:33;2.92;;;2.20;;
2548;SDS011;1284;53.520;10.248;2023-08-12T10:33:59;5.03;;;2.63;;
2548;SDS011;1284;53.520;10.248;2023-08-12T10:36:25;4.05;;;2.05;;
2548;SDS011;1284;53.520;10.248;2023-08-12T10:38:52;5.38;;;2.35;;
2548;SDS011;1284;53.520;10.248;2023-08-12T10:46:30;5.70;;;2.35;;
2548;SDS011;1284;53.520;10.248;2023-08-12T10:49:04;5.70;;;2.20;;
2548;SDS011;1284;53.520;10.248;2023-08-12T11:02:32;2.88;;;1.95;;
2548;SDS011;1284;53.520;10.248;2023-08-12T11:05:02;3.25;;;1.98;;
2548;SDS011;1284;53.520;10.248;2023-08-12T11:12:39;3.85;;;1.92;;
2548;SDS011;1284;53.520;10.248;2023-08-12T11:15:07;3.78;;;2.53;;
2548;SDS011;1284;53.520;10.248;2023-08-12T11:17:36;5.22;;;3.20;;
2548;SDS011;1284;53.520;10.248;2023-08-12T11:22:38;2.17;;;1.90;;
2548;SDS011;1284;53.520;10.248;2023-08-12T11:25:06;3.17;;;2.00;;
2548;SDS011;1284;53.520;10.248;2023-08-12T11:30:06;10.38;;;2.10;;
2548;SDS011;1284;53.520;10.248;2023-08-12T11:32:32;5.43;;;1.90;;
2548;SDS011;1284;53.520;10.248;2023-08-12T11:34:58;2.50;;;1.80;;
2548;SDS011;1284;53.520;10.248;2023-08-12T11:37:23;4.28;;;2.28;;
2548;SDS011;1284;53.520;10.248;2023-08-12T11:39:51;5.13;;;1.95;;
2548;SDS011;1284;53.520;10.248;2023-08-12T11:42:17;4.15;;;2.20;;
2548;SDS011;1284;53.520;10.248;2023-08-12T11:45:03;4.70;;;1.80;;
2548;SDS011;1284;53.520;10.248;2023-08-12T11:47:29;5.32;;;1.90;;
2548;SDS011;1284;53.520;10.248;2023-08-12T11:49:55;2.95;;;1.88;;
2548;SDS011;1284;53.520;10.248;2023-08-12T11:52:20;3.20;;;1.70;;
2548;SDS011;1284;53.520;10.248;2023-08-12T11:54:46;4.40;;;1.70;;
2548;SDS011;1284;53.520;10.248;2023-08-12T11:57:14;3.30;;;1.52;;
2548;SDS011;1284;53.520;10.248;2023-08-12T11:59:39;4.22;;;1.92;;
2548;SDS011;1284;53.520;10.248;2023-08-12T12:02:05;3.25;;;2.00;;
2548;SDS011;1284;53.520;10.248;2023-08-12T12:04:31;3.88;;;1.75;;
2548;SDS011;1284;53.520;10.248;2023-08-12T12:06:57;4.00;;;1.50;;
2548;SDS011;1284;53.520;10.248;2023-08-12T12:09:23;3.00;;;1.42;;
2548;SDS011;1284;53.520;10.248;2023-08-12T12:11:52;2.80;;;1.35;;
2548;SDS011;1284;53.520;10.248;2023-08-12T12:14:18;6.40;;;1.10;;
2548;SDS011;1284;53.520;10.248;2023-08-12T12:16:47;4.53;;;2.33;;
2548;SDS011;1284;53.520;10.248;2023-08-12T12:19:14;2.40;;;1.42;;
2548;SDS011;1284;53.520;10.248;2023-08-12T12:21:41;1.40;;;1.23;;
2548;SDS011;1284;53.520;10.248;2023-08-12T12:24:08;3.72;;;1.35;;
2548;SDS011;1284;53.520;10.248;2023-08-12T12:26:34;2.50;;;1.63;;
2548;SDS011;1284;53.520;10.248;2023-08-12T12:29:00;2.53;;;1.95;;
2548;SDS011;1284;53.520;10.248;2023-08-12T12:31:27;2.33;;;1.83;;
2548;SDS011;1284;53.520;10.248;2023-08-12T12:33:52;2.28;;;1.60;;
2548;SDS011;1284;53.520;10.248;2023-08-12T12:36:17;1.80;;;1.33;;
2548;SDS011;1284;53.520;10.248;2023-08-12T12:38:43;2.17;;;1.48;;
2548;SDS011;1284;53.520;10.248;2023-08-12T12:41:08;2.55;;;1.55;;
2548;SDS011;1284;53.520;10.248;2023-08-12T12:43:34;2.75;;;1.70;;
2548;SDS011;1284;53.520;10.248;2023-08-12T12:45:59;2.25;;;1.58;;
2548;SDS011;1284;53.520;10.248;2023-08-12T12:48:25;2.72;;;1.55;;
2548;SDS011;1284;53.520;10.248;2023-08-12T12:50:50;3.45;;;1.70;;
2548;SDS011;1284;53.520;10.248;2023-08-12T12:53:15;3.70;;;1.77;;
2548;SDS011;1284;53.520;10.248;2023-08-12T12:55:42;1.30;;;1.20;;
2548;SDS011;1284;53.520;10.248;2023-08-12T12:58:07;2.35;;;1.55;;
2548;SDS011;1284;53.520;10.248;2023-08-12T13:00:34;2.35;;;1.55;;
2548;SDS011;1284;53.520;10.248;2023-08-12T13:02:59;3.05;;;1.65;;
2548;SDS011;1284;53.520;10.248;2023-08-12T13:05:25;2.28;;;1.63;;
2548;SDS011;1284;53.520;10.248;2023-08-12T13:07:50;2.35;;;1.30;;
2548;SDS011;1284;53.520;10.248;2023-08-12T13:10:16;1.98;;;1.50;;
2548;SDS011;1284;53.520;10.248;2023-08-12T13:12:41;3.60;;;1.80;;
2548;SDS011;1284;53.520;10.248;2023-08-12T13:15:07;2.97;;;1.90;;
2548;SDS011;1284;53.520;10.248;2023-08-12T13:17:32;2.10;;;1.48;;
2548;SDS011;1284;53.520;10.248;2023-08-12T13:19:58;3.00;;;1.67;;
2548;SDS011;1284;53.520;10.248;2023-08-12T13:22:26;2.75;;;1.77;;
2548;SDS011;1284;53.520;10.248;2023-08-12T13:24:51;3.20;;;1.67;;
2548;SDS011;1284;53.520;10.248;2023-08-12T13:27:17;3.08;;;1.70;;
2548;SDS011;1284;53.520;10.248;2023-08-12T13:29:42;4.57;;;2.03;;
2548;SDS011;1284;53.520;10.248;2023-08-12T13:32:08;4.40;;;2.42;;
2548;SDS011;1284;53.520;10.248;2023-08-12T13:34:33;4.90;;;1.77;;
2548;SDS011;1284;53.520;10.248;2023-08-12T13:36:59;1.77;;;1.42;;
2548;SDS011;1284;53.520;10.248;2023-08-12T13:39:24;2.67;;;1.92;;
2548;SDS011;1284;53.520;10.248;2023-08-12T13:41:50;2.67;;;1.67;;
2548;SDS011;1284;53.520;10.248;2023-08-12T13:44:15;2.90;;;2.17;;
2548;SDS011;1284;53.520;10.248;2023-08-12T13:46:40;3.53;;;2.03;;
2548;SDS011;1284;53.520;10.248;2023-08-12T13:49:06;3.03;;;1.90;;
2548;SDS011;1284;53.520;10.248;2023-08-12T13:51:31;3.15;;;1.75;;
2548;SDS011;1284;53.520;10.248;2023-08-12T13:53:56;2.85;;;1.60;;
2548;SDS011;1284;53.520;10.248;2023-08-12T13:56:22;1.65;;;1.48;;
2548;SDS011;1284;53.520;10.248;2023-08-12T13:58:47;3.72;;;2.38;;
2548;SDS011;1284;53.520;10.248;2023-08-12T14:01:13;3.08;;;2.20;;
2548;SDS011;1284;53.520;10.248;2023-08-12T14:03:38;4.57;;;2.03;;
2548;SDS011;1284;53.520;10.248;2023-08-12T14:06:04;2.95;;;1.88;;
2548;SDS011;1284;53.520;10.248;2023-08-12T14:08:29;3.28;;;2.28;;
2548;SDS011;1284;53.520;10.248;2023-08-12T14:10:55;3.72;;;2.17;;
2548;SDS011;1284;53.520;10.248;2023-08-12T14:13:20;2.97;;;2.05;;
2548;SDS011;1284;53.520;10.248;2023-08-12T14:15:46;4.65;;;2.25;;
2548;SDS011;1284;53.520;10.248;2023-08-12T14:18:11;3.88;;;2.13;;
2548;SDS011;1284;53.520;10.248;2023-08-12T14:20:37;2.70;;;2.13;;
2548;SDS011;1284;53.520;10.248;2023-08-12T14:23:03;3.15;;;2.17;;
2548;SDS011;1284;53.520;10.248;2023-08-12T14:25:28;5.80;;;2.65;;
2548;SDS011;1284;53.520;10.248;2023-08-12T14:27:55;4.13;;;2.50;;
2548;SDS011;1284;53.520;10.248;2023-08-12T14:30:23;3.83;;;2.58;;
2548;SDS011;1284;53.520;10.248;2023-08-12T14:32:50;5.65;;;2.30;;
2548;SDS011;1284;53.520;10.248;2023-08-12T14:35:16;3.25;;;2.20;;
2548;SDS011;1284;53.520;10.248;2023-08-12T14:37:41;3.72;;;2.10;;
2548;SDS011;1284;53.520;10.248;2023-08-12T14:40:07;4.40;;;2.60;;
2548;SDS011;1284;53.520;10.248;2023-08-12T14:42:33;4.10;;;2.85;;
2548;SDS011;1284;53.520;10.248;2023-08-12T14:44:58;3.38;;;2.28;;
2548;SDS011;1284;53.520;10.248;2023-08-12T14:47:24;5.82;;;2.88;;
2548;SDS011;1284;53.520;10.248;2023-08-12T14:49:49;4.18;;;2.50;;
2548;SDS011;1284;53.520;10.248;2023-08-12T14:52:17;4.72;;;2.55;;
2548;SDS011;1284;53.520;10.248;2023-08-12T14:54:44;5.60;;;2.72;;
2548;SDS011;1284;53.520;10.248;2023-08-12T14:57:09;4.80;;;2.17;;
2548;SDS011;1284;53.520;10.248;2023-08-12T14:59:34;6.07;;;2.92;;
2548;SDS011;1284;53.520;10.248;2023-08-12T15:02:00;5.30;;;2.35;;
2548;SDS011;1284;53.520;10.248;2023-08-12T15:04:25;4.28;;;2.33;;
2548;SDS011;1284;53.520;10.248;2023-08-12T15:06:51;5.95;;;2.53;;
2548;SDS011;1284;53.520;10.248;2023-08-12T15:09:16;5.35;;;2.42;;
2548;SDS011;1284;53.520;10.248;2023-08-12T15:11:41;5.05;;;3.20;;
2548;SDS011;1284;53.520;10.248;2023-08-12T15:14:07;2.70;;;2.35;;
2548;SDS011;1284;53.520;10.248;2023-08-12T15:16:33;6.45;;;2.88;;
2548;SDS011;1284;53.520;10.248;2023-08-12T15:19:01;9.55;;;2.47;;
2548;SDS011;1284;53.520;10.248;2023-08-12T15:21:26;3.72;;;2.42;;
2548;SDS011;1284;53.520;10.248;2023-08-12T15:23:52;5.13;;;2.95;;
2548;SDS011;1284;53.520;10.248;2023-08-12T15:26:17;4.82;;;2.80;;
2548;SDS011;1284;53.520;10.248;2023-08-12T15:28:43;4.22;;;2.80;;